Time;durP1;ratioP1;P1;durP2;ratioP2;P2;SDS_P1;SDS_P2;PMS_P1;PMS_P2;Temp;Humidity;BMP_temperature;BMP_pressure;BME280_temperature;BME280_humidity;BME280_pressure;Samples;Min_cycle;Max_cycle;Signal;HPM_P1;HPM_P2
2021/07/03 00:01:57;;;;;;;1.00;0.88;;;;;;;18.11;50.49;93693.06;5070538;28;20028;-76
2021/07/03 00:04:23;;;;;;;1.48;1.08;;;;;;;18.10;50.97;93700.38;5069977;28;20167;-76
2021/07/03 00:06:49;;;;;;;1.75;0.90;;;;;;;18.11;50.66;93687.66;5070301;28;20029;-76
2021/07/03 00:09:16;;;;;;;3.50;0.80;;;;;;;18.08;51.23;93694.56;5069912;28;20028;-76
2021/07/03 00:11:41;;;;;;;3.15;1.00;;;;;;;18.06;51.39;93696.09;5070379;28;20407;-76
2021/07/03 00:14:08;;;;;;;1.63;0.90;;;;;;;17.99;51.67;93694.84;5070208;28;20035;-76
2021/07/03 00:16:34;;;;;;;3.75;1.05;;;;;;;17.99;51.84;93696.72;5069933;28;20421;-77
2021/07/03 00:18:59;;;;;;;1.27;0.90;;;;;;;17.98;52.17;93700.59;5068604;28;20094;-77
2021/07/03 00:21:25;;;;;;;1.40;0.90;;;;;;;17.93;52.06;93700.88;5061150;28;20037;-77
2021/07/03 00:23:51;;;;;;;7.32;1.00;;;;;;;17.86;52.89;93703.50;5065746;28;20032;-77
2021/07/03 00:26:16;;;;;;;2.88;1.10;;;;;;;17.88;53.09;93704.69;5049920;28;20028;-77
2021/07/03 00:28:42;;;;;;;1.55;0.90;;;;;;;17.88;53.04;93693.13;5049884;28;20032;-77
2021/07/03 00:31:07;;;;;;;5.57;1.23;;;;;;;17.87;53.23;93702.34;5049941;28;20404;-76
2021/07/03 00:33:33;;;;;;;1.50;0.82;;;;;;;17.81;53.27;93702.63;5052010;28;20032;-76
2021/07/03 00:35:58;;;;;;;1.80;1.10;;;;;;;17.78;53.42;93714.13;5057919;28;20402;-77
2021/07/03 00:38:23;;;;;;;1.52;0.93;;;;;;;17.72;53.64;93707.47;5053468;28;20024;-77
2021/07/03 00:40:49;;;;;;;5.50;1.08;;;;;;;17.73;53.85;93717.16;5067969;28;20067;-76
2021/07/03 00:43:15;;;;;;;2.70;1.00;;;;;;;17.72;53.61;93715.56;5065552;28;20025;-76
2021/07/03 00:45:41;;;;;;;2.13;0.80;;;;;;;17.75;53.72;93725.66;5069447;28;20448;-76
2021/07/03 00:48:06;;;;;;;1.50;0.98;;;;;;;17.72;53.86;93712.88;5059888;28;20126;-76
2021/07/03 00:50:32;;;;;;;3.10;1.00;;;;;;;17.69;53.93;93710.91;5068088;28;20035;-76
2021/07/03 00:52:57;;;;;;;3.45;1.55;;;;;;;17.65;54.09;93716.25;5058071;28;20025;-76
2021/07/03 00:55:26;;;;;;;2.70;1.30;;;;;;;17.65;54.25;93715.47;5064163;28;20541;-76
2021/07/03 00:57:51;;;;;;;1.02;0.68;;;;;;;17.57;54.15;93716.50;5056761;28;20082;-77
2021/07/03 01:00:17;;;;;;;2.17;1.00;;;;;;;17.56;54.30;93706.84;5054889;28;20024;-77
2021/07/03 01:02:42;;;;;;;2.53;1.13;;;;;;;17.49;54.31;93714.81;5050373;28;20131;-77
2021/07/03 01:05:08;;;;;;;1.33;0.82;;;;;;;17.47;54.61;93701.72;5052109;28;20039;-77
2021/07/03 01:07:34;;;;;;;1.55;0.95;;;;;;;17.51;54.61;93712.56;5065135;28;20395;-76
2021/07/03 01:10:00;;;;;;;1.95;0.90;;;;;;;17.51;54.19;93707.16;5068942;28;20471;-76
2021/07/03 01:12:25;;;;;;;1.70;0.88;;;;;;;17.47;54.15;93707.09;5056258;28;20024;-76
2021/07/03 01:14:51;;;;;;;1.42;0.80;;;;;;;17.36;54.31;93709.63;5059692;28;20028;-76
2021/07/03 01:17:17;;;;;;;2.10;1.00;;;;;;;17.29;54.56;93709.50;5064909;28;20407;-76
2021/07/03 01:19:44;;;;;;;2.33;1.00;;;;;;;17.31;54.68;93706.44;5057841;28;20140;-76
2021/07/03 01:22:11;;;;;;;1.60;0.90;;;;;;;17.28;54.78;93701.75;5045137;28;20491;-76
2021/07/03 01:24:37;;;;;;;1.58;1.00;;;;;;;17.18;54.67;93701.22;5057431;28;20063;-76
2021/07/03 01:27:04;;;;;;;2.70;1.10;;;;;;;17.14;54.62;93713.84;5058865;28;20020;-76
2021/07/03 01:29:32;;;;;;;1.30;0.70;;;;;;;17.13;54.30;93708.81;5068851;28;20396;-76
2021/07/03 01:31:59;;;;;;;0.98;0.60;;;;;;;17.10;54.09;93693.38;5068512;28;20467;-76
2021/07/03 01:34:27;;;;;;;5.75;1.15;;;;;;;17.12;53.80;93693.81;5069901;28;20048;-76
2021/07/03 01:36:53;;;;;;;1.13;0.82;;;;;;;17.12;53.48;93691.13;5068424;28;20088;-76
2021/07/03 01:39:19;;;;;;;1.52;0.82;;;;;;;17.11;53.15;93692.25;5070295;28;20020;-78
2021/07/03 01:41:44;;;;;;;1.35;0.90;;;;;;;17.02;52.37;93695.94;5068772;28;20086;-78
2021/07/03 01:44:11;;;;;;;1.52;0.98;;;;;;;17.00;52.82;93687.44;5068404;28;20103;-77
2021/07/03 01:46:38;;;;;;;1.27;0.63;;;;;;;16.94;52.86;93678.09;5063737;28;20021;-77
2021/07/03 01:49:06;;;;;;;1.50;0.90;;;;;;;16.96;52.90;93685.84;5059471;28;20495;-77
2021/07/03 01:51:31;;;;;;;1.67;0.80;;;;;;;16.93;53.10;93695.38;5060514;28;20028;-78
2021/07/03 01:53:57;;;;;;;1.02;0.73;;;;;;;16.90;53.15;93690.72;5068404;28;20028;-77
2021/07/03 01:56:22;;;;;;;1.52;0.85;;;;;;;16.89;53.04;93689.16;5053949;28;20023;-78
2021/07/03 01:58:47;;;;;;;2.05;1.05;;;;;;;16.87;53.48;93687.97;5057009;28;20480;-78
2021/07/03 02:01:13;;;;;;;2.38;1.00;;;;;;;16.82;53.60;93691.72;5066118;28;20563;-78
2021/07/03 02:03:38;;;;;;;1.80;1.20;;;;;;;16.82;53.29;93694.41;5048479;28;20028;-78
2021/07/03 02:06:04;;;;;;;3.55;1.20;;;;;;;16.83;53.57;93690.56;5056608;28;20162;-77
2021/07/03 02:08:31;;;;;;;2.38;1.35;;;;;;;16.83;53.02;93688.69;5051769;28;20377;-78
2021/07/03 02:10:58;;;;;;;1.63;1.00;;;;;;;16.82;53.46;93678.28;5058122;28;20112;-78
2021/07/03 02:13:24;;;;;;;3.92;1.20;;;;;;;16.85;53.80;93680.25;5069288;28;20115;-78
2021/07/03 02:15:49;;;;;;;1.75;1.10;;;;;;;16.75;53.82;93683.47;5052353;28;20120;-79
2021/07/03 02:18:15;;;;;;;2.70;1.00;;;;;;;16.71;53.71;93682.63;5061924;28;20502;-79
2021/07/03 02:20:40;;;;;;;4.63;1.30;;;;;;;16.78;53.56;93682.78;5060939;28;20021;-79
2021/07/03 02:23:06;;;;;;;4.18;1.30;;;;;;;16.71;53.61;93674.56;5053304;28;20086;-79
2021/07/03 02:25:32;;;;;;;3.40;1.55;;;;;;;16.69;53.92;93672.25;5057512;28;20061;-80
2021/07/03 02:27:58;;;;;;;2.00;1.02;;;;;;;16.64;53.70;93672.53;5059534;28;20029;-80
2021/07/03 02:30:24;;;;;;;3.20;1.40;;;;;;;16.69;53.84;93679.53;5053453;28;20028;-79
2021/07/03 02:32:49;;;;;;;2.53;1.67;;;;;;;16.74;53.63;93673.88;5056666;28;20025;-79
2021/07/03 02:35:17;;;;;;;3.13;0.88;;;;;;;16.67;53.41;93679.09;5069468;28;20051;-79
2021/07/03 02:37:43;;;;;;;17.63;1.92;;;;;;;16.71;53.44;93682.63;5060887;28;20399;-79
2021/07/03 02:40:12;;;;;;;2.60;1.10;;;;;;;16.69;53.39;93688.41;5072142;28;20020;-79
2021/07/03 02:42:38;;;;;;;3.20;1.20;;;;;;;16.60;53.76;93690.50;5073240;28;20032;-78
2021/07/03 02:45:06;;;;;;;2.72;1.25;;;;;;;16.60;54.10;93709.34;5059154;28;20074;-79
2021/07/03 02:47:31;;;;;;;3.13;1.50;;;;;;;16.68;53.97;93702.19;5061464;28;20025;-79
2021/07/03 02:49:56;;;;;;;1.90;1.08;;;;;;;16.61;53.93;93698.22;5057927;28;20443;-79
2021/07/03 02:52:22;;;;;;;2.65;1.13;;;;;;;16.64;54.14;93696.75;5054018;28;20338;-78
2021/07/03 02:54:49;;;;;;;2.08;1.27;;;;;;;16.69;54.06;93693.78;5056146;28;20039;-78
2021/07/03 02:57:14;;;;;;;2.58;1.08;;;;;;;16.68;54.15;93702.19;5062533;28;20083;-79
2021/07/03 02:59:40;;;;;;;1.95;1.15;;;;;;;16.70;54.02;93711.47;5054255;28;20032;-79
2021/07/03 03:02:05;;;;;;;3.05;1.13;;;;;;;16.66;54.08;93705.22;5062506;28;20029;-78
2021/07/03 03:04:30;;;;;;;3.95;1.20;;;;;;;16.72;54.06;93714.56;5062352;28;20051;-79
2021/07/03 03:06:56;;;;;;;3.95;1.20;;;;;;;16.67;54.31;93714.88;5071617;28;20120;-78
2021/07/03 03:09:21;;;;;;;5.90;1.63;;;;;;;16.67;54.16;93719.47;5060480;28;20412;-79
2021/07/03 03:11:47;;;;;;;2.53;1.35;;;;;;;16.72;54.07;93722.66;5059663;28;20467;-77
2021/07/03 03:14:12;;;;;;;3.78;1.55;;;;;;;16.75;53.97;93727.34;5057871;28;20033;-77
2021/07/03 03:16:37;;;;;;;2.63;1.35;;;;;;;16.73;54.18;93729.59;5072261;28;20024;-77
2021/07/03 03:19:03;;;;;;;7.25;1.55;;;;;;;16.72;54.15;93725.34;5072398;28;20064;-78
2021/07/03 03:21:29;;;;;;;3.22;1.73;;;;;;;16.70;54.38;93732.22;5070347;28;20477;-78
2021/07/03 03:23:55;;;;;;;3.10;1.13;;;;;;;16.71;54.68;93731.06;5062882;28;20054;-78
2021/07/03 03:26:20;;;;;;;3.08;1.00;;;;;;;16.73;54.42;93739.56;5056019;28;20060;-78
2021/07/03 03:28:45;;;;;;;3.97;1.70;;;;;;;16.71;54.56;93734.56;5070821;28;20445;-78
2021/07/03 03:31:11;;;;;;;4.15;1.75;;;;;;;16.73;54.80;93731.50;5061526;28;20040;-78
2021/07/03 03:33:37;;;;;;;2.88;1.50;;;;;;;16.75;54.28;93740.78;5067673;28;20024;-77
2021/07/03 03:36:03;;;;;;;4.13;1.55;;;;;;;16.80;54.33;93747.78;5054570;28;20021;-78
2021/07/03 03:38:30;;;;;;;3.78;1.42;;;;;;;16.84;54.29;93744.06;5052255;28;20480;-78
2021/07/03 03:40:55;;;;;;;4.80;1.60;;;;;;;16.94;54.31;93742.72;5050536;28;20037;-78
2021/07/03 03:43:20;;;;;;;7.20;1.73;;;;;;;17.02;54.10;93744.41;5057979;28;20078;-78
2021/07/03 03:45:46;;;;;;;4.15;1.88;;;;;;;17.07;54.56;93739.88;5061211;28;20025;-78
2021/07/03 03:48:12;;;;;;;3.85;1.52;;;;;;;17.15;54.29;93730.78;5052054;28;20025;-78
2021/07/03 03:50:37;;;;;;;4.68;1.85;;;;;;;17.17;53.86;93728.50;5068116;28;20063;-78
2021/07/03 03:53:03;;;;;;;2.95;1.67;;;;;;;17.26;53.81;93731.75;5070376;28;20043;-78
2021/07/03 03:55:29;;;;;;;5.35;1.48;;;;;;;17.30;54.09;93721.84;5060144;28;20424;-78
2021/07/03 03:57:54;;;;;;;3.47;1.90;;;;;;;17.33;53.66;93733.78;5061143;28;20033;-78
2021/07/03 04:00:21;;;;;;;3.72;1.98;;;;;;;17.36;53.58;93738.47;5067746;28;20060;-77
2021/07/03 04:02:46;;;;;;;5.30;1.83;;;;;;;17.29;53.45;93739.13;5070343;28;20063;-78
2021/07/03 04:05:13;;;;;;;4.70;1.55;;;;;;;17.29;53.62;93731.03;5066855;28;20057;-77
2021/07/03 04:07:38;;;;;;;7.18;1.73;;;;;;;17.35;53.58;93745.75;5065371;28;20016;-77
2021/07/03 04:10:09;;;;;;;5.50;2.03;;;;;;;17.36;53.81;93731.19;5063025;28;20033;-78
2021/07/03 04:12:35;;;;;;;5.93;2.05;;;;;;;17.35;53.62;93745.75;5051755;28;20028;-78
2021/07/03 04:15:01;;;;;;;4.45;1.80;;;;;;;17.29;53.89;93741.81;5060664;28;20577;-78
2021/07/03 04:17:26;;;;;;;11.88;2.10;;;;;;;17.27;54.60;93749.47;5057241;28;20135;-78
2021/07/03 04:19:52;;;;;;;4.50;2.63;;;;;;;17.31;54.07;93771.84;5054111;28;20111;-78
2021/07/03 04:22:17;;;;;;;6.05;2.38;;;;;;;17.37;54.06;93754.25;5058288;28;20021;-78
2021/07/03 04:24:44;;;;;;;3.28;1.80;;;;;;;17.33;53.97;93745.34;5062470;28;20023;-78
2021/07/03 04:27:09;;;;;;;3.85;2.17;;;;;;;17.33;54.19;93750.72;5060961;28;20099;-78
2021/07/03 04:29:34;;;;;;;8.52;2.58;;;;;;;17.39;54.12;93745.84;5066553;28;20086;-78
2021/07/03 04:32:00;;;;;;;4.85;2.25;;;;;;;17.48;54.23;93756.38;5051550;28;20033;-78
2021/07/03 04:34:27;;;;;;;3.92;2.25;;;;;;;17.53;54.50;93756.09;5071227;28;20102;-78
2021/07/03 04:36:52;;;;;;;4.18;2.13;;;;;;;17.60;54.39;93745.41;5069933;28;20403;-79
2021/07/03 04:39:18;;;;;;;5.20;2.00;;;;;;;17.68;53.41;93744.38;5071417;28;20028;-79
2021/07/03 04:41:43;;;;;;;3.67;1.90;;;;;;;17.75;53.39;93743.75;5055918;28;20028;-78
2021/07/03 04:44:10;;;;;;;3.67;1.92;;;;;;;17.80;54.00;93754.22;5050949;28;20025;-78
2021/07/03 04:46:36;;;;;;;4.15;2.08;;;;;;;17.88;52.96;93755.13;5063798;28;20028;-79
2021/07/03 04:49:02;;;;;;;7.10;2.58;;;;;;;17.83;52.99;93753.53;5067004;28;20456;-79
2021/07/03 04:51:27;;;;;;;3.28;2.17;;;;;;;17.82;53.04;93768.88;5063451;28;20404;-79
2021/07/03 04:53:52;;;;;;;6.45;3.08;;;;;;;17.74;52.44;93758.34;5064641;28;20037;-78
2021/07/03 04:56:18;;;;;;;5.25;2.80;;;;;;;17.84;53.39;93763.94;5063529;28;20025;-78
2021/07/03 04:58:44;;;;;;;3.67;2.20;;;;;;;17.93;53.09;93754.81;5069595;28;20093;-78
2021/07/03 05:01:11;;;;;;;7.22;3.20;;;;;;;17.87;52.43;93764.34;5069152;28;20020;-78
2021/07/03 05:03:36;;;;;;;3.92;2.40;;;;;;;17.82;53.11;93763.47;5070672;28;20032;-78
2021/07/03 05:06:02;;;;;;;10.75;2.15;;;;;;;17.76;52.99;93756.84;5053555;28;20459;-78
2021/07/03 05:08:28;;;;;;;4.53;2.55;;;;;;;17.75;53.87;93762.59;5062850;28;20029;-78
2021/07/03 05:10:54;;;;;;;4.55;2.30;;;;;;;17.72;52.97;93757.94;5056464;28;20031;-78
2021/07/03 05:13:19;;;;;;;4.45;2.13;;;;;;;17.60;52.50;93756.97;5069173;28;20040;-78
2021/07/03 05:15:44;;;;;;;14.07;2.90;;;;;;;17.60;53.41;93767.75;5070456;28;20039;-78
2021/07/03 05:18:10;;;;;;;4.97;2.75;;;;;;;17.63;52.80;93766.25;5069110;28;20107;-78
2021/07/03 05:20:35;;;;;;;4.35;2.92;;;;;;;17.66;53.04;93762.84;5050511;28;20052;-78
2021/07/03 05:23:01;;;;;;;9.00;2.22;;;;;;;17.60;52.86;93770.44;5059595;28;20038;-78
2021/07/03 05:25:26;;;;;;;4.38;2.38;;;;;;;17.38;53.15;93765.81;5068625;28;20144;-78
2021/07/03 05:27:52;;;;;;;7.07;2.47;;;;;;;17.44;53.14;93769.78;5052990;28;20067;-78
2021/07/03 05:30:17;;;;;;;4.20;2.15;;;;;;;17.52;52.40;93770.69;5054223;28;20051;-77
2021/07/03 05:32:43;;;;;;;3.47;2.08;;;;;;;17.47;52.49;93773.69;5048964;28;20036;-78
2021/07/03 05:35:09;;;;;;;7.28;2.10;;;;;;;17.56;52.37;93785.00;5050044;28;20439;-78
2021/07/03 05:37:35;;;;;;;3.28;1.60;;;;;;;17.51;51.94;93766.44;5060159;28;20024;-78
2021/07/03 05:40:00;;;;;;;9.07;2.33;;;;;;;17.69;52.63;93753.25;5068725;28;20053;-77
2021/07/03 05:42:25;;;;;;;6.10;2.30;;;;;;;17.82;51.35;93771.56;5059006;28;20059;-77
2021/07/03 05:44:51;;;;;;;4.47;2.08;;;;;;;17.77;51.46;93763.81;5048830;28;20035;-77
2021/07/03 05:47:19;;;;;;;4.53;2.65;;;;;;;17.80;51.52;93771.16;5065709;28;20029;-78
2021/07/03 05:49:44;;;;;;;4.47;2.53;;;;;;;17.74;52.56;93766.44;5068572;28;20083;-75
2021/07/03 05:52:10;;;;;;;4.50;2.60;;;;;;;17.65;52.93;93775.53;5062388;28;20021;-79
2021/07/03 05:54:35;;;;;;;6.70;2.28;;;;;;;17.65;53.23;93780.16;5055422;28;20037;-78
2021/07/03 05:57:01;;;;;;;3.95;2.95;;;;;;;17.54;53.50;93790.72;5055308;28;20024;-79
2021/07/03 05:59:26;;;;;;;3.70;2.28;;;;;;;17.53;54.79;93780.34;5052653;28;20411;-78
2021/07/03 06:01:52;;;;;;;6.18;2.65;;;;;;;17.63;53.86;93780.50;5050968;28;20034;-79
2021/07/03 06:04:17;;;;;;;5.55;3.03;;;;;;;17.64;53.46;93789.38;5066106;28;20391;-79
2021/07/03 06:06:42;;;;;;;6.97;3.47;;;;;;;17.72;54.26;93782.19;5058489;28;20029;-79
2021/07/03 06:09:08;;;;;;;4.82;2.60;;;;;;;17.86;54.15;93785.16;5056102;28;20035;-79
2021/07/03 06:11:33;;;;;;;3.97;2.20;;;;;;;18.06;53.60;93785.84;5065372;28;20566;-78
2021/07/03 06:14:00;;;;;;;5.03;2.40;;;;;;;18.25;53.13;93790.34;5068004;28;20051;-78
2021/07/03 06:16:26;;;;;;;4.93;3.00;;;;;;;18.25;52.33;93766.84;5063995;28;20021;-76
2021/07/03 06:18:51;;;;;;;3.95;2.42;;;;;;;18.34;52.03;93784.69;5049354;28;20125;-76
2021/07/03 06:21:16;;;;;;;3.70;2.25;;;;;;;18.35;51.57;93780.88;5049706;28;20025;-80
2021/07/03 06:23:42;;;;;;;3.40;2.15;;;;;;;18.47;50.68;93779.88;5048289;28;20407;-79
2021/07/03 06:26:07;;;;;;;3.78;2.20;;;;;;;18.30;51.83;93775.78;5051498;28;20078;-80
2021/07/03 06:28:33;;;;;;;6.38;2.90;;;;;;;18.37;51.76;93767.78;5065404;28;20028;-77
2021/07/03 06:30:58;;;;;;;6.68;2.83;;;;;;;18.44;51.78;93776.00;5060870;28;20028;-76
2021/07/03 06:33:24;;;;;;;3.08;2.15;;;;;;;18.50;51.53;93777.25;5054615;28;20029;-78
2021/07/03 06:35:51;;;;;;;4.15;2.38;;;;;;;18.59;52.44;93777.72;5061529;28;20519;-78
2021/07/03 06:38:16;;;;;;;3.78;2.13;;;;;;;18.51;50.69;93773.38;5047790;28;20032;-78
2021/07/03 06:40:42;;;;;;;9.27;2.80;;;;;;;18.62;50.85;93787.00;5051946;28;20435;-78
2021/07/03 06:43:07;;;;;;;10.70;2.33;;;;;;;18.58;49.85;93783.50;5050028;28;20075;-78
2021/07/03 06:45:33;;;;;;;5.32;2.28;;;;;;;18.58;50.51;93792.38;5060869;28;20021;-78
2021/07/03 06:47:58;;;;;;;4.30;2.40;;;;;;;18.54;50.19;93786.16;5056747;28;20024;-77
2021/07/03 06:50:24;;;;;;;9.65;2.15;;;;;;;18.57;49.56;93792.75;5067781;28;20046;-79
2021/07/03 06:52:49;;;;;;;6.60;1.95;;;;;;;18.60;49.63;93794.69;5061735;28;20100;-75
2021/07/03 06:55:15;;;;;;;4.57;2.50;;;;;;;18.63;50.03;93785.88;5061271;28;20035;-77
2021/07/03 06:57:40;;;;;;;4.07;2.03;;;;;;;18.63;50.49;93791.28;5063870;28;20487;-77
2021/07/03 07:00:08;;;;;;;6.43;2.05;;;;;;;18.65;51.15;93791.69;5063666;28;20537;-78
2021/07/03 07:02:33;;;;;;;9.65;2.83;;;;;;;18.49;50.69;93791.88;5063871;28;20098;-78
2021/07/03 07:04:59;;;;;;;4.18;2.58;;;;;;;18.51;50.96;93805.78;5055624;28;20037;-78
2021/07/03 07:07:24;;;;;;;3.53;2.40;;;;;;;18.34;51.67;93782.00;5060767;28;20028;-78
2021/07/03 07:09:49;;;;;;;4.25;2.47;;;;;;;18.38;50.91;93789.03;5063566;28;20037;-79
2021/07/03 07:12:16;;;;;;;3.95;2.30;;;;;;;18.48;50.90;93784.13;5058062;28;20055;-78
2021/07/03 07:14:42;;;;;;;11.27;2.83;;;;;;;18.56;50.92;93786.56;5065880;28;20021;-78
2021/07/03 07:17:08;;;;;;;3.58;2.08;;;;;;;18.48;50.08;93789.53;5065785;28;20039;-78
2021/07/03 07:19:33;;;;;;;10.65;2.72;;;;;;;18.45;51.00;93789.09;5062551;28;20448;-79
2021/07/03 07:21:59;;;;;;;4.45;2.38;;;;;;;18.61;50.32;93790.88;5054711;28;20059;-79
2021/07/03 07:24:25;;;;;;;5.20;2.33;;;;;;;18.78;48.98;93773.34;5060408;28;20028;-79
2021/07/03 07:26:50;;;;;;;8.07;2.45;;;;;;;18.88;49.24;93778.13;5066007;28;20502;-79
2021/07/03 07:29:15;;;;;;;4.07;1.85;;;;;;;19.02;48.58;93777.53;5057577;28;20066;-79
2021/07/03 07:31:41;;;;;;;7.75;2.38;;;;;;;19.07;48.49;93779.91;5062196;28;20052;-79
2021/07/03 07:34:06;;;;;;;6.05;2.20;;;;;;;19.16;49.08;93779.63;5061028;28;20075;-79
2021/07/03 07:36:32;;;;;;;4.65;2.00;;;;;;;19.32;48.74;93787.50;5063465;28;20102;-79
2021/07/03 07:38:57;;;;;;;8.80;2.83;;;;;;;19.42;47.84;93774.09;5060778;28;20040;-79
2021/07/03 07:41:23;;;;;;;2.80;1.85;;;;;;;19.33;46.38;93762.81;5063111;28;20048;-79
2021/07/03 07:43:48;;;;;;;3.83;2.22;;;;;;;19.42;47.87;93768.69;5062566;28;20063;-79
2021/07/03 07:46:14;;;;;;;5.32;2.03;;;;;;;19.43;46.29;93772.94;5066615;28;20036;-79
2021/07/03 07:48:41;;;;;;;5.55;1.80;;;;;;;19.52;46.69;93769.16;5072005;28;20055;-79
2021/07/03 07:51:06;;;;;;;6.50;2.13;;;;;;;19.62;46.39;93776.59;5059028;28;20111;-79
2021/07/03 07:53:33;;;;;;;3.53;1.80;;;;;;;19.58;47.07;93781.19;5057567;28;20132;-79
2021/07/03 07:55:59;;;;;;;3.85;2.30;;;;;;;19.59;47.51;93780.81;5053120;28;20029;-78
2021/07/03 07:58:25;;;;;;;5.70;1.77;;;;;;;19.42;46.25;93795.72;5067329;28;20462;-79
2021/07/03 08:00:51;;;;;;;4.07;2.15;;;;;;;19.46;47.51;93790.34;5066316;28;20029;-79
2021/07/03 08:03:17;;;;;;;3.38;2.40;;;;;;;19.52;46.74;93786.16;5058872;28;20487;-80
2021/07/03 08:05:48;;;;;;;3.78;1.77;;;;;;;19.34;48.14;93799.50;5056886;28;20028;-79
2021/07/03 08:08:13;;;;;;;3.63;1.70;;;;;;;19.37;47.39;93792.56;5063565;28;20511;-78
2021/07/03 08:10:40;;;;;;;9.57;2.08;;;;;;;19.34;47.07;93793.31;5060433;28;20057;-77
2021/07/03 08:13:06;;;;;;;3.50;2.03;;;;;;;19.28;47.38;93778.59;5059527;28;20028;-77
2021/07/03 08:15:33;;;;;;;4.72;1.95;;;;;;;19.48;46.83;93798.88;5062285;28;20032;-77
2021/07/03 08:18:00;;;;;;;4.47;1.77;;;;;;;19.59;46.39;93785.47;5066668;28;20025;-77
2021/07/03 08:20:27;;;;;;;6.95;1.70;;;;;;;19.71;47.37;93792.56;5057478;28;20032;-77
2021/07/03 08:22:53;;;;;;;5.15;1.55;;;;;;;19.72;46.25;93791.38;5060653;28;20024;-77
2021/07/03 08:25:20;;;;;;;3.00;1.63;;;;;;;19.59;46.25;93813.25;5056417;28;20032;-77
2021/07/03 08:27:47;;;;;;;4.25;2.08;;;;;;;19.16;47.87;93809.31;5061282;28;20032;-77
2021/07/03 08:30:14;;;;;;;2.85;1.80;;;;;;;19.09;48.70;93793.03;5063962;28;20032;-77
2021/07/03 08:32:40;;;;;;;5.70;1.92;;;;;;;19.31;48.26;93802.91;5060696;28;20033;-77
2021/07/03 08:35:07;;;;;;;6.20;2.33;;;;;;;19.41;48.42;93796.84;5056840;28;20055;-78
2021/07/03 08:37:32;;;;;;;6.72;1.75;;;;;;;19.45;48.51;93789.56;5061499;28;20029;-77
2021/07/03 08:39:57;;;;;;;6.65;2.00;;;;;;;19.49;47.43;93795.00;5054904;28;20471;-77
2021/07/03 08:42:23;;;;;;;7.55;2.03;;;;;;;19.45;47.94;93786.84;5050950;28;20029;-77
2021/07/03 08:44:50;;;;;;;3.85;1.63;;;;;;;19.48;48.50;93798.06;5054905;28;20483;-77
2021/07/03 08:47:18;;;;;;;4.75;1.92;;;;;;;19.48;48.04;93803.47;5063453;28;20376;-77
2021/07/03 08:49:57;;;;;;;6.18;2.33;;;;;;;19.31;48.85;93789.41;5062315;28;20377;-77
2021/07/03 08:52:26;;;;;;;7.57;2.25;;;;;;;19.30;48.88;93795.97;5054806;28;20064;-77
2021/07/03 08:55:02;;;;;;;3.42;2.20;;;;;;;19.20;48.90;93794.72;5057366;28;20035;-77
2021/07/03 08:57:31;;;;;;;5.30;2.45;;;;;;;19.18;49.34;93785.44;5050576;28;20028;-77
2021/07/03 08:59:58;;;;;;;3.35;2.05;;;;;;;19.08;48.88;93781.44;5054927;28;20025;-77
2021/07/03 09:02:36;;;;;;;4.00;2.65;;;;;;;19.06;50.00;93775.63;5060052;28;20025;-77
2021/07/03 09:05:02;;;;;;;3.72;2.33;;;;;;;18.95;51.04;93777.41;5055117;28;20485;-77
2021/07/03 09:07:35;;;;;;;3.90;2.55;;;;;;;19.01;50.75;93774.06;5054217;28;20495;-77
2021/07/03 09:10:01;;;;;;;5.65;2.33;;;;;;;18.98;50.40;93780.16;5058754;28;20029;-77
2021/07/03 09:12:32;;;;;;;3.70;2.22;;;;;;;19.28;50.07;93773.94;5063394;28;20028;-77
2021/07/03 09:15:10;;;;;;;8.77;3.15;;;;;;;19.61;47.17;93780.44;5058403;28;20033;-77
2021/07/03 09:17:49;;;;;;;3.40;2.13;;;;;;;19.61;46.79;93767.72;5062339;28;20035;-77
2021/07/03 09:20:25;;;;;;;3.70;2.10;;;;;;;19.54;48.52;93769.56;5057507;28;20036;-77
2021/07/03 09:22:51;;;;;;;3.92;2.22;;;;;;;19.52;48.01;93779.97;5059050;28;20024;-78
2021/07/03 09:25:19;;;;;;;5.07;2.03;;;;;;;19.47;47.69;93766.81;5055283;28;20039;-78
2021/07/03 09:27:45;;;;;;;3.88;2.00;;;;;;;19.63;47.78;93760.00;5056568;28;20032;-77
2021/07/03 09:30:11;;;;;;;7.15;1.98;;;;;;;19.72;49.06;93775.97;5069584;28;20036;-77
2021/07/03 09:32:36;;;;;;;4.57;2.50;;;;;;;19.70;48.18;93780.13;5055620;28;20033;-77
2021/07/03 09:35:09;;;;;;;9.48;2.42;;;;;;;19.82;48.02;93777.97;5055302;28;20108;-76
2021/07/03 09:37:35;;;;;;;4.25;2.40;;;;;;;19.94;49.55;93760.66;5062458;28;20035;-77
2021/07/03 09:40:08;;;;;;;4.45;3.10;;;;;;;20.10;49.43;93784.75;5060053;28;20083;-76
2021/07/03 09:42:38;;;;;;;4.10;2.80;;;;;;;20.10;46.03;93790.16;5061180;28;20044;-77
2021/07/03 09:45:05;;;;;;;5.45;3.42;;;;;;;19.95;47.94;93759.53;5055656;28;20127;-77
2021/07/03 09:47:31;;;;;;;5.78;3.50;;;;;;;19.94;48.37;93774.19;5057653;28;20078;-76
2021/07/03 09:50:10;;;;;;;4.88;2.97;;;;;;;19.92;46.96;93767.63;5060051;28;20025;-76
2021/07/03 09:52:36;;;;;;;4.47;3.08;;;;;;;19.96;47.45;93760.31;5061523;28;20031;-77
2021/07/03 09:55:08;;;;;;;6.00;3.00;;;;;;;19.83;48.00;93771.41;5057313;28;20063;-76
2021/07/03 09:57:35;;;;;;;4.80;2.95;;;;;;;19.56;46.94;93761.84;5051685;28;20025;-76
2021/07/03 10:00:02;;;;;;;5.93;2.63;;;;;;;19.41;46.34;93753.63;5055371;28;20037;-76
2021/07/03 10:02:28;;;;;;;7.15;2.72;;;;;;;19.45;46.87;93761.75;5063628;28;20036;-76
2021/07/03 10:04:53;;;;;;;4.70;2.67;;;;;;;19.74;47.13;93760.16;5057471;28;20403;-76
2021/07/03 10:07:25;;;;;;;8.68;3.20;;;;;;;19.82;46.29;93756.34;5063984;28;20468;-76
2021/07/03 10:10:03;;;;;;;5.10;3.00;;;;;;;19.94;46.95;93759.91;5061355;28;20302;-76
2021/07/03 10:12:31;;;;;;;6.40;2.95;;;;;;;20.03;46.06;93761.13;5058868;28;20079;-76
2021/07/03 10:14:57;;;;;;;5.10;2.80;;;;;;;20.12;45.97;93751.91;5064854;28;20082;-74
2021/07/03 10:17:25;;;;;;;3.70;2.72;;;;;;;20.32;45.07;93752.44;5062211;28;20024;-74
2021/07/03 10:19:52;;;;;;;7.05;2.80;;;;;;;20.45;44.03;93753.66;5066610;28;20094;-74
2021/07/03 10:22:23;;;;;;;4.93;2.85;;;;;;;20.65;43.98;93759.63;5055540;28;20111;-74
2021/07/03 10:24:57;;;;;;;3.70;2.72;;;;;;;20.73;42.77;93755.78;5056617;28;20545;-74
2021/07/03 10:27:28;;;;;;;3.47;2.58;;;;;;;20.71;44.53;93743.78;5058229;28;20030;-74
2021/07/03 10:29:57;;;;;;;6.40;3.50;;;;;;;20.67;44.14;93751.88;5056476;28;20020;-74
2021/07/03 10:32:32;;;;;;;9.18;4.05;;;;;;;20.69;44.27;93756.94;5061201;28;20393;-74
2021/07/03 10:35:09;;;;;;;6.95;3.53;;;;;;;20.60;44.24;93752.63;5060772;28;20127;-74
2021/07/03 10:37:35;;;;;;;4.60;3.22;;;;;;;20.51;44.44;93749.44;5066341;28;20032;-74
2021/07/03 10:40:00;;;;;;;8.00;3.08;;;;;;;20.44;44.43;93752.13;5054795;28;20032;-74
2021/07/03 10:42:32;;;;;;;4.85;4.00;;;;;;;20.37;45.91;93755.56;5058982;28;20025;-75
2021/07/03 10:45:13;;;;;;;6.50;3.75;;;;;;;20.28;45.12;93744.28;5065031;28;20032;-74
2021/07/03 10:47:39;;;;;;;6.40;3.45;;;;;;;20.16;45.47;93733.78;5056250;28;20029;-75
2021/07/03 10:50:21;;;;;;;7.65;3.92;;;;;;;20.38;45.51;93732.00;5055687;28;20032;-73
2021/07/03 10:52:47;;;;;;;;;;;;;;;20.58;44.26;93741.41;5068504;28;20036;-73
2021/07/03 10:55:13;;;;;;;4.30;2.75;;;;;;;20.63;42.90;93735.63;5052277;28;19928;-73
2021/07/03 10:57:43;;;;;;;5.38;2.78;;;;;;;20.57;43.17;93739.03;5066434;28;20032;-73
2021/07/03 11:00:11;;;;;;;6.72;3.28;;;;;;;20.56;43.36;93727.44;5065078;28;20028;-75
2021/07/03 11:02:38;;;;;;;4.80;3.75;;;;;;;20.43;44.48;93728.91;5068172;28;20059;-77
2021/07/03 11:05:13;;;;;;;11.50;3.80;;;;;;;20.48;44.70;93720.44;5071977;28;20398;-77
2021/07/03 11:07:40;;;;;;;5.00;2.45;;;;;;;20.69;42.45;93733.31;5067124;28;20090;-77
2021/07/03 11:10:11;;;;;;;9.38;3.63;;;;;;;20.71;43.32;93728.31;5052389;28;20021;-77
2021/07/03 11:12:51;;;;;;;3.33;2.65;;;;;;;20.54;43.36;93716.22;5057480;28;20094;-76
2021/07/03 11:15:24;;;;;;;3.92;3.05;;;;;;;20.36;44.62;93701.81;5072091;28;20064;-77
2021/07/03 11:17:50;;;;;;;4.30;3.17;;;;;;;20.56;45.64;93726.69;5066972;28;20044;-77
2021/07/03 11:20:30;;;;;;;4.30;3.65;;;;;;;20.83;43.87;93727.19;5071092;28;20043;-77
2021/07/03 11:22:57;;;;;;;6.80;3.72;;;;;;;20.86;42.88;93707.47;5068052;28;20059;-77
2021/07/03 11:25:30;;;;;;;5.70;3.70;;;;;;;20.96;43.22;93706.72;5061754;28;20472;-77
2021/07/03 11:28:13;;;;;;;4.80;2.92;;;;;;;20.96;42.60;93703.25;5060163;28;20032;-77
2021/07/03 11:30:42;;;;;;;5.93;3.35;;;;;;;21.08;40.59;93726.50;5057398;28;20117;-77
2021/07/03 11:33:09;;;;;;;6.35;3.05;;;;;;;20.97;39.26;93704.81;5065059;28;20033;-76